createdAt,value
2019-03-23T00:01:57.569Z,3.10
2019-03-23T00:04:26.349Z,3.00
2019-03-23T00:06:54.764Z,2.90
2019-03-23T00:09:23.192Z,3.00
2019-03-23T00:11:51.606Z,3.00
2019-03-23T00:14:20.040Z,3.10
2019-03-23T00:16:48.457Z,3.20
2019-03-23T00:19:16.874Z,3.30
2019-03-23T00:21:45.316Z,3.00
2019-03-23T00:24:13.736Z,2.90
2019-03-23T00:26:42.173Z,2.90
2019-03-23T00:29:10.589Z,3.00
2019-03-23T00:31:39.021Z,3.00
2019-03-23T00:34:07.436Z,3.10
2019-03-23T00:36:41.430Z,3.30
2019-03-23T00:39:06.589Z,3.40
2019-03-23T00:41:35.202Z,3.60
2019-03-23T00:44:03.618Z,3.70
2019-03-23T00:46:32.108Z,3.80
2019-03-23T00:49:00.521Z,3.80
2019-03-23T00:51:28.953Z,3.90
2019-03-23T00:53:57.382Z,3.90
2019-03-23T00:56:25.809Z,3.90
2019-03-23T00:58:54.228Z,3.90
2019-03-23T01:01:22.675Z,3.70
2019-03-23T01:03:51.097Z,3.40
2019-03-23T01:06:19.521Z,3.40
2019-03-23T01:08:47.943Z,3.40
2019-03-23T01:11:16.366Z,3.40
2019-03-23T01:13:44.780Z,3.40
2019-03-23T01:16:13.213Z,3.50
2019-03-23T01:18:41.631Z,3.50
2019-03-23T01:21:10.060Z,3.60
2019-03-23T01:23:38.477Z,3.60
2019-03-23T01:26:06.968Z,3.60
2019-03-23T01:28:35.392Z,3.70
2019-03-23T01:31:03.825Z,3.70
2019-03-23T01:33:32.247Z,3.80
2019-03-23T01:36:00.688Z,3.80
2019-03-23T01:38:29.360Z,3.80
2019-03-23T01:40:57.789Z,3.80
2019-03-23T01:43:26.212Z,3.80
2019-03-23T01:45:54.909Z,3.90
2019-03-23T01:48:23.320Z,3.90
2019-03-23T01:50:51.746Z,3.80
2019-03-23T01:53:20.161Z,3.80
2019-03-23T01:55:48.576Z,3.70
2019-03-23T01:58:17.018Z,3.70
2019-03-23T02:00:45.424Z,3.70
2019-03-23T02:03:13.846Z,3.70
2019-03-23T02:05:42.261Z,3.70
2019-03-23T02:08:10.688Z,3.70
2019-03-23T02:13:07.208Z,3.70
2019-03-23T02:15:35.624Z,3.70
2019-03-23T02:18:04.056Z,3.70
2019-03-23T02:20:32.465Z,3.70
2019-03-23T02:23:00.917Z,3.50
2019-03-23T02:27:57.441Z,3.40
2019-03-23T02:30:25.858Z,3.40
2019-03-23T02:32:54.289Z,3.50
2019-03-23T02:35:22.789Z,3.50
2019-03-23T02:37:51.214Z,3.50
2019-03-23T02:40:19.629Z,3.50
2019-03-23T02:42:48.058Z,3.40
2019-03-23T02:45:16.837Z,3.40
2019-03-23T02:47:45.260Z,3.30
2019-03-23T02:50:13.676Z,3.30
2019-03-23T02:52:42.103Z,3.30
2019-03-23T02:55:10.949Z,3.30
2019-03-23T02:57:39.395Z,3.20
2019-03-23T03:00:10.774Z,3.20
2019-03-23T03:02:39.210Z,3.20
2019-03-23T03:05:09.060Z,3.10
2019-03-23T03:07:42.520Z,3.10
2019-03-23T03:10:11.151Z,3.10
2019-03-23T03:12:39.572Z,3.00
2019-03-23T03:15:08.928Z,3.00
2019-03-23T03:20:10.176Z,2.90
2019-03-23T03:22:38.721Z,2.90
2019-03-23T03:25:07.909Z,2.90
2019-03-23T03:27:36.387Z,2.90
2019-03-23T03:30:06.841Z,2.80
2019-03-23T03:32:35.285Z,2.80
2019-03-23T03:35:04.368Z,2.80
2019-03-23T03:37:32.790Z,2.80
2019-03-23T03:40:01.206Z,2.80
2019-03-23T03:42:29.696Z,2.70
2019-03-23T03:44:58.115Z,2.70
2019-03-23T03:47:26.554Z,2.70
2019-03-23T03:49:55.246Z,2.70
2019-03-23T03:52:23.664Z,2.70
2019-03-23T03:54:52.077Z,2.70
2019-03-23T03:57:20.506Z,2.60
2019-03-23T03:59:49.269Z,2.60
2019-03-23T04:02:17.692Z,2.50
2019-03-23T04:04:46.114Z,2.50
2019-03-23T04:07:14.539Z,2.50
2019-03-23T04:09:42.959Z,2.50
2019-03-23T04:12:11.400Z,2.40
2019-03-23T04:14:39.824Z,2.40
2019-03-23T04:17:08.247Z,2.40
2019-03-23T04:19:36.681Z,2.40
2019-03-23T04:22:05.089Z,2.30
2019-03-23T04:24:33.516Z,2.20
2019-03-23T04:27:03.568Z,2.20
2019-03-23T04:29:32.072Z,2.20
2019-03-23T04:32:00.478Z,2.30
2019-03-23T04:34:28.909Z,2.30
2019-03-23T04:36:57.328Z,2.20
2019-03-23T04:39:25.762Z,2.20
2019-03-23T04:41:54.176Z,2.20
2019-03-23T04:44:22.628Z,2.10
2019-03-23T04:46:51.334Z,2.10
2019-03-23T04:49:19.764Z,2.10
2019-03-23T04:51:48.189Z,2.10
2019-03-23T04:54:16.613Z,2.10
2019-03-23T04:56:45.029Z,2.10
2019-03-23T04:59:13.739Z,2.10
2019-03-23T05:01:42.158Z,2.00
2019-03-23T05:04:10.580Z,2.00
2019-03-23T05:06:39.004Z,2.10
2019-03-23T05:09:09.056Z,2.00
2019-03-23T05:11:37.480Z,2.00
2019-03-23T05:14:05.921Z,2.00
2019-03-23T05:16:34.345Z,2.10
2019-03-23T05:19:02.763Z,2.10
2019-03-23T05:21:31.181Z,2.10
2019-03-23T05:23:59.602Z,2.10
2019-03-23T05:26:28.018Z,2.20
2019-03-23T05:28:56.441Z,2.20
2019-03-23T05:31:25.156Z,2.30
2019-03-23T05:33:53.620Z,2.40
2019-03-23T05:36:22.032Z,2.40
2019-03-23T05:38:50.453Z,2.50
2019-03-23T05:41:18.872Z,2.50
2019-03-23T05:43:47.306Z,2.50
2019-03-23T05:46:15.720Z,2.60
2019-03-23T05:48:44.148Z,2.60
2019-03-23T05:51:12.567Z,2.60
2019-03-23T05:53:41.069Z,2.60
2019-03-23T05:56:09.838Z,2.70
2019-03-23T05:58:38.255Z,2.60
2019-03-23T06:01:06.676Z,2.60
2019-03-23T06:03:35.104Z,2.50
2019-03-23T06:06:03.520Z,2.50
2019-03-23T06:08:31.944Z,2.60
2019-03-23T06:11:00.359Z,2.60
2019-03-23T06:13:28.793Z,2.60
2019-03-23T06:15:57.200Z,2.60
2019-03-23T06:18:25.616Z,2.70
2019-03-23T06:20:54.054Z,2.60
2019-03-23T06:23:22.465Z,2.60
2019-03-23T06:25:50.901Z,2.70
2019-03-23T06:28:19.317Z,2.70
2019-03-23T06:30:47.762Z,2.70
2019-03-23T06:33:16.568Z,2.80
2019-03-23T06:35:45.360Z,2.70
2019-03-23T06:38:16.192Z,2.90
2019-03-23T06:40:43.985Z,2.90
2019-03-23T06:43:12.400Z,3.00
2019-03-23T06:45:40.829Z,3.00
2019-03-23T06:48:09.265Z,3.00
2019-03-23T06:50:37.692Z,3.10
2019-03-23T06:53:06.107Z,3.20
2019-03-23T06:55:34.542Z,3.20
2019-03-23T06:58:02.952Z,3.30
2019-03-23T07:00:31.612Z,3.40
2019-03-23T07:03:00.029Z,3.50
2019-03-23T07:05:28.457Z,3.70
2019-03-23T07:07:56.871Z,3.80
2019-03-23T07:10:25.307Z,3.90
2019-03-23T07:12:53.716Z,4.10
2019-03-23T07:15:22.384Z,4.20
2019-03-23T07:17:50.803Z,4.30
2019-03-23T07:20:19.244Z,4.30
2019-03-23T07:22:47.660Z,4.40
2019-03-23T07:25:16.093Z,4.50
2019-03-23T07:27:44.511Z,4.50
2019-03-23T07:30:15.245Z,4.60
2019-03-23T07:32:43.670Z,4.70
2019-03-23T07:35:12.425Z,4.70
2019-03-23T07:37:40.874Z,4.80
2019-03-23T07:40:11.141Z,4.90
2019-03-23T07:42:39.628Z,5.00
2019-03-23T07:45:10.777Z,5.10
2019-03-23T07:47:39.207Z,5.20
2019-03-23T07:50:09.569Z,5.30
2019-03-23T07:52:38.002Z,5.40
2019-03-23T07:55:14.675Z,5.50
2019-03-23T07:57:43.636Z,5.60
2019-03-23T08:00:18.494Z,5.70
2019-03-23T08:02:46.911Z,5.80
2019-03-23T08:05:15.340Z,5.90
2019-03-23T08:07:43.755Z,6.00
2019-03-23T08:10:26.792Z,6.10
2019-03-23T08:12:55.222Z,6.20
2019-03-23T08:15:23.640Z,6.30
2019-03-23T08:17:52.048Z,6.50
2019-03-23T08:20:20.548Z,6.60
2019-03-23T08:22:48.961Z,6.70
2019-03-23T08:25:17.380Z,6.80
2019-03-23T08:27:45.797Z,6.90
2019-03-23T08:30:14.292Z,7.00
2019-03-23T08:32:42.727Z,7.20
2019-03-23T08:35:11.205Z,7.30
2019-03-23T08:37:39.669Z,7.40
2019-03-23T08:40:08.572Z,7.50
2019-03-23T08:42:36.997Z,7.60
2019-03-23T08:45:06.556Z,7.90
2019-03-23T08:47:35.281Z,8.00
2019-03-23T08:50:06.221Z,8.10
2019-03-23T08:52:34.632Z,8.20
2019-03-23T08:55:03.048Z,8.40
2019-03-23T08:57:31.470Z,8.50
2019-03-23T08:59:59.889Z,8.60
2019-03-23T09:02:28.305Z,8.70
2019-03-23T09:04:56.736Z,8.80
2019-03-23T09:07:25.146Z,8.90
2019-03-23T09:09:59.208Z,9.00
2019-03-23T09:12:23.701Z,9.10
2019-03-23T09:14:52.123Z,9.30
2019-03-23T09:17:20.545Z,9.40
2019-03-23T09:19:48.961Z,9.50
2019-03-23T09:22:17.384Z,9.60
2019-03-23T09:24:45.814Z,9.70
2019-03-23T09:27:14.237Z,9.90
2019-03-23T09:29:43.804Z,10.00
2019-03-23T09:32:12.296Z,10.10
2019-03-23T09:34:40.713Z,10.30
2019-03-23T09:37:09.149Z,10.40
2019-03-23T09:39:37.568Z,10.50
2019-03-23T09:42:07.170Z,10.70
2019-03-23T09:44:35.677Z,10.90
2019-03-23T09:47:04.183Z,11.10
2019-03-23T09:49:32.599Z,11.20
2019-03-23T09:52:01.024Z,11.30
2019-03-23T09:54:29.445Z,11.40
2019-03-23T09:56:59.577Z,11.50
2019-03-23T09:59:29.569Z,11.60
2019-03-23T10:01:57.996Z,11.70
2019-03-23T10:04:26.421Z,11.80
2019-03-23T10:06:54.844Z,12.00
2019-03-23T10:09:23.259Z,12.10
2019-03-23T10:11:51.689Z,12.30
2019-03-23T10:14:20.173Z,12.30
2019-03-23T10:16:48.604Z,12.40
2019-03-23T10:19:17.020Z,12.50
2019-03-23T10:21:45.444Z,12.50
2019-03-23T10:24:13.857Z,12.60
2019-03-23T10:26:42.282Z,12.70
2019-03-23T10:29:10.709Z,12.80
2019-03-23T10:31:39.141Z,12.90
2019-03-23T10:34:07.589Z,13.10
2019-03-23T10:36:36.008Z,13.20
2019-03-23T10:39:05.869Z,13.30
2019-03-23T10:41:34.374Z,13.50
2019-03-23T10:44:02.788Z,13.70
2019-03-23T10:46:31.216Z,13.70
2019-03-23T10:48:59.979Z,13.80
2019-03-23T10:51:47.734Z,13.90
2019-03-23T10:54:16.152Z,13.90
2019-03-23T10:56:44.584Z,14.00
2019-03-23T10:59:13.000Z,14.10
2019-03-23T11:01:41.432Z,14.10
2019-03-23T11:04:09.845Z,14.10
2019-03-23T11:06:38.276Z,14.10
2019-03-23T11:09:07.172Z,14.20
2019-03-23T11:11:35.600Z,14.40
2019-03-23T11:14:04.032Z,14.60
2019-03-23T11:16:32.467Z,14.70
2019-03-23T11:19:00.885Z,14.70
2019-03-23T11:21:29.328Z,14.60
2019-03-23T11:23:57.732Z,14.60
2019-03-23T11:26:28.072Z,14.70
2019-03-23T11:28:56.307Z,14.80
2019-03-23T11:31:25.047Z,14.80
2019-03-23T11:33:53.462Z,14.90
2019-03-23T11:36:21.885Z,14.90
2019-03-23T11:38:50.302Z,15.10
2019-03-23T11:41:18.720Z,15.30
2019-03-23T11:43:47.146Z,15.50
2019-03-23T11:46:17.047Z,15.60
2019-03-23T11:48:45.660Z,15.60
2019-03-23T11:51:14.080Z,15.50
2019-03-23T11:53:42.517Z,15.50
2019-03-23T11:56:10.929Z,15.40
2019-03-23T11:58:39.356Z,15.40
2019-03-23T12:01:07.802Z,15.50
2019-03-23T12:03:36.278Z,15.70
2019-03-23T12:06:04.753Z,15.70
2019-03-23T12:08:33.180Z,15.70
2019-03-23T12:11:03.143Z,15.80
2019-03-23T12:13:32.095Z,15.90
2019-03-23T12:16:00.784Z,15.90
2019-03-23T12:18:29.212Z,16.00
2019-03-23T12:20:57.628Z,16.00
2019-03-23T12:23:26.060Z,16.00
2019-03-23T12:25:54.723Z,15.90
2019-03-23T12:28:23.142Z,16.00
2019-03-23T12:30:51.557Z,16.10
2019-03-23T12:33:21.488Z,16.20
2019-03-23T12:35:50.083Z,16.20
2019-03-23T12:38:18.858Z,16.20
2019-03-23T12:40:47.285Z,16.30
2019-03-23T12:43:15.712Z,16.40
2019-03-23T12:45:44.129Z,16.40
2019-03-23T12:48:12.560Z,16.50
2019-03-23T12:50:40.968Z,16.50
2019-03-23T12:53:09.398Z,16.40
2019-03-23T12:55:38.119Z,16.50
2019-03-23T12:58:06.548Z,16.50
2019-03-23T13:00:35.286Z,16.70
2019-03-23T13:03:03.780Z,16.60
2019-03-23T13:05:32.217Z,16.60
2019-03-23T13:08:00.936Z,16.70
2019-03-23T13:10:29.348Z,16.60
2019-03-23T13:12:58.488Z,16.50
2019-03-23T13:15:26.986Z,16.40
2019-03-23T13:17:55.506Z,16.60
2019-03-23T13:20:24.027Z,16.70
2019-03-23T13:22:52.850Z,16.70
2019-03-23T13:25:21.531Z,16.80
2019-03-23T13:27:49.952Z,16.80
2019-03-23T13:30:18.740Z,16.80
2019-03-23T13:32:47.236Z,16.80
2019-03-23T13:35:15.661Z,16.80
2019-03-23T13:37:44.145Z,16.80
2019-03-23T13:40:13.108Z,16.80
2019-03-23T13:42:41.530Z,16.90
2019-03-23T13:45:10.678Z,17.00
2019-03-23T13:47:39.808Z,16.90
2019-03-23T13:50:10.582Z,16.90
2019-03-23T13:52:39.330Z,17.00
2019-03-23T13:55:09.553Z,16.90
2019-03-23T13:57:37.981Z,17.00
2019-03-23T14:00:10.451Z,17.00
2019-03-23T14:02:38.867Z,17.00
2019-03-23T14:05:15.732Z,16.90
2019-03-23T14:07:37.831Z,16.80
2019-03-23T14:10:28.077Z,16.70
2019-03-23T14:12:56.713Z,16.80
2019-03-23T14:15:25.140Z,16.60
2019-03-23T14:17:53.839Z,16.70
2019-03-23T14:20:22.257Z,16.70
2019-03-23T14:22:50.691Z,16.70
2019-03-23T14:25:19.100Z,16.60
2019-03-23T14:27:47.517Z,16.70
2019-03-23T14:30:16.612Z,16.60
2019-03-23T14:32:45.034Z,16.50
2019-03-23T14:35:13.461Z,16.40
2019-03-23T14:37:41.880Z,16.40
2019-03-23T14:40:10.478Z,16.50
2019-03-23T14:42:38.897Z,16.50
2019-03-23T14:45:07.588Z,16.50
2019-03-23T14:47:36.013Z,16.60
2019-03-23T14:50:05.980Z,16.60
2019-03-23T14:52:34.408Z,16.50
2019-03-23T14:55:03.006Z,16.50
2019-03-23T14:57:31.423Z,16.30
2019-03-23T14:59:59.857Z,16.30
2019-03-23T15:02:28.277Z,16.50
2019-03-23T15:04:56.713Z,16.50
2019-03-23T15:07:26.060Z,16.50
2019-03-23T15:09:54.729Z,16.30
2019-03-23T15:12:23.140Z,16.20
2019-03-23T15:14:51.573Z,16.20
2019-03-23T15:17:19.989Z,16.20
2019-03-23T15:19:48.420Z,16.30
2019-03-23T15:22:16.833Z,16.30
2019-03-23T15:27:13.621Z,16.20
2019-03-23T15:29:42.047Z,16.20
2019-03-23T15:32:10.733Z,16.00
2019-03-23T15:34:39.164Z,16.00
2019-03-23T15:37:07.929Z,16.00
2019-03-23T15:39:36.356Z,16.00
2019-03-23T15:42:04.845Z,16.10
2019-03-23T15:44:33.264Z,16.10
2019-03-23T15:47:01.700Z,16.10
2019-03-23T15:49:30.124Z,16.10
2019-03-23T15:51:58.541Z,16.10
2019-03-23T15:54:26.976Z,16.00
2019-03-23T15:56:55.648Z,15.80
2019-03-23T15:59:24.077Z,15.90
2019-03-23T16:01:52.493Z,15.90
2019-03-23T16:04:20.921Z,15.90
2019-03-23T16:06:49.341Z,15.80
2019-03-23T16:09:17.773Z,15.80
2019-03-23T16:11:46.197Z,15.80
2019-03-23T16:14:14.609Z,15.80
2019-03-23T16:16:43.280Z,15.80
2019-03-23T16:19:11.697Z,15.70
2019-03-23T16:21:40.133Z,15.50
2019-03-23T16:24:08.553Z,15.40
2019-03-23T16:26:36.985Z,15.40
2019-03-23T16:29:05.413Z,15.30
2019-03-23T16:31:34.085Z,15.20
2019-03-23T16:34:02.516Z,15.20
2019-03-23T16:36:30.938Z,15.10
2019-03-23T16:38:59.353Z,15.10
2019-03-23T16:41:27.781Z,15.00
2019-03-23T16:43:56.200Z,15.00
2019-03-23T16:46:24.630Z,15.00
2019-03-23T16:48:53.343Z,15.00
2019-03-23T16:51:21.764Z,15.00
2019-03-23T16:53:50.205Z,15.00
2019-03-23T16:56:18.889Z,15.00
2019-03-23T16:58:47.613Z,14.90
2019-03-23T17:01:16.074Z,14.70
2019-03-23T17:03:44.845Z,14.60
2019-03-23T17:06:13.268Z,14.60
2019-03-23T17:08:41.688Z,14.60
2019-03-23T17:11:10.113Z,14.50
2019-03-23T17:13:38.535Z,14.50
2019-03-23T17:16:06.956Z,14.40
2019-03-23T17:18:35.372Z,14.40
2019-03-23T17:21:03.892Z,14.30
2019-03-23T17:23:32.296Z,14.20
2019-03-23T17:26:00.728Z,14.10
2019-03-23T17:28:29.184Z,14.10
2019-03-23T17:30:57.621Z,14.00
2019-03-23T17:33:26.055Z,13.90
2019-03-23T17:35:54.479Z,13.80
2019-03-23T17:38:22.896Z,13.70
2019-03-23T17:40:51.658Z,13.60
2019-03-23T17:43:20.069Z,13.40
2019-03-23T17:45:48.524Z,13.30
2019-03-23T17:48:16.942Z,13.20
2019-03-23T17:50:45.693Z,13.10
2019-03-23T17:53:14.105Z,12.90
2019-03-23T17:55:42.532Z,12.70
2019-03-23T17:58:10.956Z,12.50
2019-03-23T18:00:39.384Z,12.30
2019-03-23T18:03:07.816Z,12.10
2019-03-23T18:05:36.241Z,12.00
2019-03-23T18:08:04.664Z,11.80
2019-03-23T18:10:33.434Z,11.80
2019-03-23T18:13:01.867Z,11.80
2019-03-23T18:15:30.317Z,11.70
2019-03-23T18:17:58.724Z,11.60
2019-03-23T18:20:27.217Z,11.50
2019-03-23T18:22:55.676Z,11.40
2019-03-23T18:25:24.100Z,11.40
2019-03-23T18:27:52.524Z,11.30
2019-03-23T18:30:51.036Z,11.20
2019-03-23T18:33:19.773Z,11.30
2019-03-23T18:35:48.226Z,11.20
2019-03-23T18:38:16.929Z,11.30
2019-03-23T18:40:45.419Z,11.10
2019-03-23T18:43:13.844Z,11.10
2019-03-23T18:45:42.269Z,11.00
2019-03-23T18:48:10.685Z,10.90
2019-03-23T18:50:39.112Z,10.80
2019-03-23T18:53:07.536Z,10.80
2019-03-23T18:55:35.956Z,10.70
2019-03-23T18:58:04.718Z,10.80
2019-03-23T19:00:35.546Z,10.80
2019-03-23T19:03:04.041Z,10.90
2019-03-23T19:05:32.789Z,10.90
2019-03-23T19:08:01.232Z,10.80
2019-03-23T19:10:29.962Z,10.70
2019-03-23T19:12:58.390Z,10.60
2019-03-23T19:15:26.801Z,10.60
2019-03-23T19:17:55.231Z,10.50
2019-03-23T19:20:23.976Z,10.50
2019-03-23T19:22:52.407Z,10.50
2019-03-23T19:25:20.825Z,10.40
2019-03-23T19:27:49.525Z,10.30
2019-03-23T19:30:18.977Z,10.20
2019-03-23T19:32:47.421Z,10.10
2019-03-23T19:35:15.901Z,9.90
2019-03-23T19:37:44.321Z,9.80
2019-03-23T19:40:12.978Z,9.70
2019-03-23T19:42:41.403Z,9.50
2019-03-23T19:45:10.127Z,9.10
2019-03-23T19:47:38.539Z,8.90
2019-03-23T19:50:07.896Z,8.50
2019-03-23T19:52:36.320Z,8.20
2019-03-23T19:55:07.781Z,8.10
2019-03-23T19:57:36.202Z,7.70
2019-03-23T20:00:09.692Z,7.50
2019-03-23T20:02:38.115Z,7.40
2019-03-23T20:05:07.073Z,7.20
2019-03-23T20:07:35.492Z,7.10
2019-03-23T20:10:05.850Z,7.00
2019-03-23T20:12:34.269Z,7.00
2019-03-23T20:15:02.682Z,7.00
2019-03-23T20:17:31.109Z,6.90
2019-03-23T20:19:59.520Z,6.90
2019-03-23T20:22:28.308Z,6.90
2019-03-23T20:24:56.721Z,7.00
2019-03-23T20:27:25.473Z,7.10
2019-03-23T20:29:53.900Z,7.20
2019-03-23T20:32:22.309Z,7.30
2019-03-23T20:34:50.737Z,7.40
2019-03-23T20:37:19.149Z,7.60
2019-03-23T20:39:47.572Z,7.60
2019-03-23T20:42:15.984Z,7.70
2019-03-23T20:44:44.410Z,7.60
2019-03-23T20:47:12.839Z,7.60
2019-03-23T20:49:41.496Z,7.60
2019-03-23T20:52:09.912Z,7.70
2019-03-23T20:54:38.396Z,7.80
2019-03-23T20:57:06.812Z,7.90
2019-03-23T20:59:35.232Z,8.00
2019-03-23T21:02:03.645Z,8.10
2019-03-23T21:04:32.068Z,8.20
2019-03-23T21:07:00.481Z,8.40
2019-03-23T21:09:29.246Z,8.50
2019-03-23T21:11:57.657Z,8.50
2019-03-23T21:14:26.087Z,8.50
2019-03-23T21:16:54.781Z,8.60
2019-03-23T21:19:23.200Z,8.70
2019-03-23T21:21:51.948Z,8.70
2019-03-23T21:24:20.369Z,8.70
2019-03-23T21:26:48.777Z,8.70
2019-03-23T21:29:17.201Z,8.70
2019-03-23T21:31:45.612Z,8.70
2019-03-23T21:34:14.032Z,8.70
2019-03-23T21:36:42.444Z,8.70
2019-03-23T21:39:10.869Z,8.60
2019-03-23T21:41:42.259Z,8.60
2019-03-23T21:44:10.684Z,8.60
2019-03-23T21:46:39.105Z,8.50
2019-03-23T21:49:07.528Z,8.50
2019-03-23T21:51:35.936Z,8.50
2019-03-23T21:54:04.420Z,8.40
2019-03-23T21:56:32.836Z,8.40
2019-03-23T21:59:01.261Z,8.40
2019-03-23T22:01:29.678Z,8.30
2019-03-23T22:03:58.383Z,8.20
2019-03-23T22:06:26.871Z,8.20
2019-03-23T22:08:55.311Z,8.10
2019-03-23T22:11:23.735Z,8.10
2019-03-23T22:13:52.434Z,8.10
2019-03-23T22:16:20.841Z,8.10
2019-03-23T22:18:49.268Z,8.00
2019-03-23T22:21:17.680Z,7.90
2019-03-23T22:23:46.094Z,7.50
2019-03-23T22:26:14.818Z,7.10
2019-03-23T22:28:43.224Z,6.60
2019-03-23T22:31:11.648Z,6.30
2019-03-23T22:33:40.073Z,5.90
2019-03-23T22:36:08.496Z,5.70
2019-03-23T22:38:36.918Z,5.50
2019-03-23T22:41:05.342Z,5.40
2019-03-23T22:43:33.757Z,5.30
2019-03-23T22:46:02.193Z,5.20
2019-03-23T22:48:30.604Z,5.10
2019-03-23T22:50:59.041Z,5.00
2019-03-23T22:53:27.456Z,4.90
2019-03-23T22:55:55.948Z,4.80
2019-03-23T22:58:24.389Z,4.70
2019-03-23T23:00:54.321Z,4.70
2019-03-23T23:03:22.815Z,4.70
2019-03-23T23:05:51.240Z,4.70
2019-03-23T23:08:19.692Z,4.80
2019-03-23T23:10:48.194Z,4.90
2019-03-23T23:13:16.644Z,5.00
2019-03-23T23:15:45.065Z,5.00
2019-03-23T23:18:13.487Z,5.00
2019-03-23T23:20:41.920Z,4.90
2019-03-23T23:23:10.349Z,4.80
2019-03-23T23:25:38.786Z,4.60
2019-03-23T23:28:07.291Z,4.50
2019-03-23T23:30:35.866Z,4.40
2019-03-23T23:33:04.351Z,4.20
2019-03-23T23:35:33.608Z,4.20
2019-03-23T23:38:02.020Z,4.20
2019-03-23T23:40:30.786Z,4.20
2019-03-23T23:42:59.202Z,4.10
2019-03-23T23:45:27.638Z,4.20
2019-03-23T23:47:56.048Z,4.20
2019-03-23T23:50:24.476Z,4.10
2019-03-23T23:52:52.896Z,4.10
2019-03-23T23:55:21.328Z,4.20
2019-03-23T23:57:49.748Z,4.20
